Time;durP1;ratioP1;P1;durP2;ratioP2;P2;SDS_P1;SDS_P2;PMS_P1;PMS_P2;Temp;Humidity;BMP_temperature;BMP_pressure;BME280_temperature;BME280_humidity;BME280_pressure;Samples;Min_cycle;Max_cycle;Signal;HPM_P1;HPM_P2
2023/05/28 00:22:55;;;;;;;13.18;6.25;;;12.40;99.90;;;;;;5070236;28;20032;-61
2023/05/28 02:45:48;;;;;;;22.50;8.70;;;11.60;99.90;;;;;;5049732;28;20033;-60
2023/05/28 02:48:14;;;;;;;24.20;9.18;;;11.50;99.90;;;;;;5043294;28;20048;-60
2023/05/28 04:53:29;;;;;;;19.70;7.50;;;11.60;99.90;;;;;;5059540;28;20040;-60
2023/05/28 04:55:55;;;;;;;16.27;6.93;;;11.70;99.90;;;;;;5065660;28;20500;-60
2023/05/28 04:58:21;;;;;;;14.85;6.97;;;11.70;99.90;;;;;;5058003;28;20098;-60
2023/05/28 05:00:47;;;;;;;19.80;7.63;;;11.80;99.90;;;;;;5041316;28;20047;-60
2023/05/28 05:03:14;;;;;;;15.82;7.55;;;11.80;99.90;;;;;;5051119;28;20557;-60
2023/05/28 05:35:47;;;;;;;16.20;6.72;;;12.70;99.90;;;;;;5064680;28;20299;-60
2023/05/28 05:38:13;;;;;;;14.55;6.60;;;12.80;99.90;;;;;;5048291;28;20685;-60
2023/05/28 05:40:38;;;;;;;17.15;6.78;;;12.80;99.90;;;;;;5061518;28;20451;-61
2023/05/28 05:43:04;;;;;;;16.05;6.00;;;12.90;99.90;;;;;;5050269;28;20484;-60
2023/05/28 05:45:30;;;;;;;14.98;7.03;;;13.00;99.90;;;;;;5035580;28;20434;-60
2023/05/28 05:47:56;;;;;;;14.77;5.78;;;13.10;99.90;;;;;;5049726;28;20040;-60
2023/05/28 05:50:21;;;;;;;18.30;7.18;;;13.10;99.90;;;;;;5048839;28;20419;-60
2023/05/28 05:52:47;;;;;;;14.27;5.97;;;13.20;99.90;;;;;;5048646;28;20401;-60
2023/05/28 05:55:13;;;;;;;18.52;7.47;;;13.30;99.90;;;;;;5031050;28;20048;-61
2023/05/28 05:57:39;;;;;;;14.32;7.28;;;13.40;99.90;;;;;;5051778;28;20032;-60
2023/05/28 06:00:08;;;;;;;17.52;7.80;;;13.50;99.90;;;;;;5070810;28;20040;-61
2023/05/28 06:02:35;;;;;;;19.33;7.85;;;13.50;99.90;;;;;;5069555;28;20488;-60
2023/05/28 06:05:03;;;;;;;15.98;7.75;;;13.60;99.90;;;;;;5064899;28;20106;-61
2023/05/28 06:07:28;;;;;;;21.73;9.90;;;13.70;99.90;;;;;;5030156;28;20063;-61
2023/05/28 06:09:54;;;;;;;24.70;9.13;;;13.80;99.90;;;;;;5071690;28;20484;-61
2023/05/28 06:12:20;;;;;;;19.52;8.40;;;13.90;99.90;;;;;;5047620;28;20051;-59
2023/05/28 06:14:47;;;;;;;17.90;9.13;;;13.90;99.90;;;;;;5068154;28;20063;-60
2023/05/28 06:17:12;;;;;;;15.40;7.68;;;14.10;99.90;;;;;;5042424;28;20047;-61
2023/05/28 06:19:38;;;;;;;18.88;8.30;;;14.20;99.90;;;;;;5054064;28;20036;-60
2023/05/28 06:22:04;;;;;;;14.27;5.38;;;14.20;99.90;;;;;;5044191;28;20400;-60
2023/05/28 06:24:30;;;;;;;13.93;6.22;;;14.30;99.90;;;;;;5041351;28;20040;-60
2023/05/28 06:26:57;;;;;;;13.00;5.28;;;14.30;99.90;;;;;;5049954;28;20078;-61
2023/05/28 06:29:22;;;;;;;12.15;5.20;;;14.40;99.90;;;;;;5047733;28;20701;-60
2023/05/28 06:31:48;;;;;;;13.73;5.43;;;14.50;99.90;;;;;;5060044;28;20033;-60
2023/05/28 06:34:14;;;;;;;15.63;5.78;;;14.50;99.90;;;;;;5048990;28;20128;-60
2023/05/28 06:36:40;;;;;;;17.13;5.68;;;14.60;99.90;;;;;;5046284;28;20420;-60
2023/05/28 06:39:05;;;;;;;14.68;5.32;;;14.70;99.90;;;;;;5025323;28;20173;-60
2023/05/28 06:41:31;;;;;;;13.43;4.88;;;14.70;99.90;;;;;;5057801;28;20032;-61
2023/05/28 06:43:57;;;;;;;14.15;4.65;;;14.80;99.90;;;;;;5060385;28;20044;-61
2023/05/28 06:46:23;;;;;;;15.85;4.78;;;14.80;99.90;;;;;;5046178;28;20719;-60
2023/05/28 06:48:49;;;;;;;11.18;4.70;;;14.90;99.90;;;;;;5038474;28;20072;-60
2023/05/28 06:51:14;;;;;;;11.85;4.88;;;14.90;99.90;;;;;;5064662;28;20040;-61
2023/05/28 06:53:40;;;;;;;12.52;4.38;;;15.00;99.90;;;;;;5063421;28;20392;-60
2023/05/28 06:56:06;;;;;;;12.13;5.15;;;15.10;99.90;;;;;;5023830;28;20476;-60
2023/05/28 06:58:32;;;;;;;12.82;4.68;;;15.20;99.90;;;;;;5045842;28;20518;-61
2023/05/28 07:01:01;;;;;;;12.38;4.82;;;15.30;99.90;;;;;;5043830;28;20072;-61
2023/05/28 07:03:27;;;;;;;8.88;4.40;;;15.30;99.90;;;;;;5062559;28;20039;-60
2023/05/28 07:05:53;;;;;;;11.32;4.97;;;15.30;99.90;;;;;;5046664;28;20384;-60
2023/05/28 07:08:19;;;;;;;13.82;5.97;;;15.40;99.90;;;;;;5069214;28;20528;-60
2023/05/28 07:10:44;;;;;;;11.57;4.97;;;15.50;99.90;;;;;;5067486;28;20040;-60
2023/05/28 07:13:10;;;;;;;8.77;4.35;;;15.70;99.90;;;;;;5068413;28;20036;-61
2023/05/28 07:15:36;;;;;;;12.80;3.92;;;15.80;99.90;;;;;;5064308;28;20036;-61
2023/05/28 07:18:02;;;;;;;9.48;3.67;;;15.80;99.90;;;;;;5048812;28;20539;-60
2023/05/28 07:20:28;;;;;;;8.32;3.85;;;15.80;99.90;;;;;;5034183;28;20051;-60
2023/05/28 07:22:53;;;;;;;11.30;3.70;;;15.90;99.90;;;;;;5071394;28;20075;-60
2023/05/28 07:25:19;;;;;;;12.35;3.78;;;15.90;99.90;;;;;;5064009;28;20422;-60
2023/05/28 07:27:45;;;;;;;8.07;3.28;;;15.90;99.90;;;;;;5044833;28;20519;-61
2023/05/28 07:30:11;;;;;;;7.18;3.13;;;15.90;99.90;;;;;;5065925;28;20028;-60
2023/05/28 07:32:37;;;;;;;8.55;3.85;;;16.00;99.90;;;;;;5034439;28;20044;-60
2023/05/28 07:35:03;;;;;;;7.50;3.05;;;16.10;99.90;;;;;;5018645;28;20033;-60
2023/05/28 07:37:29;;;;;;;8.63;3.25;;;16.10;99.90;;;;;;5041657;28;20037;-60
2023/05/28 07:39:55;;;;;;;9.98;3.55;;;16.20;99.90;;;;;;5023567;28;20029;-60
2023/05/28 07:42:20;;;;;;;9.05;3.60;;;16.20;99.90;;;;;;5006155;28;20041;-60
2023/05/28 07:44:46;;;;;;;11.10;3.75;;;16.20;99.90;;;;;;5038308;28;20547;-60
2023/05/28 07:47:13;;;;;;;10.10;3.78;;;16.30;99.90;;;;;;5036863;28;20069;-61
2023/05/28 07:49:39;;;;;;;7.47;3.70;;;16.40;99.90;;;;;;5008157;28;20033;-61
2023/05/28 07:52:04;;;;;;;6.85;3.17;;;16.50;99.90;;;;;;5041910;28;20044;-61
2023/05/28 07:54:30;;;;;;;10.45;4.25;;;16.60;99.90;;;;;;5010447;28;20064;-60
2023/05/28 07:56:56;;;;;;;10.32;3.70;;;16.70;99.90;;;;;;5027692;28;20079;-61
2023/05/28 07:59:22;;;;;;;9.40;4.18;;;16.80;99.30;;;;;;5010817;28;20033;-60
2023/05/28 08:01:48;;;;;;;8.07;3.03;;;16.90;99.30;;;;;;5043915;28;20052;-61
2023/05/28 08:04:14;;;;;;;6.90;3.45;;;16.90;97.70;;;;;;5024720;28;20037;-61
2023/05/28 08:06:40;;;;;;;6.50;3.30;;;17.00;98.50;;;;;;5026461;28;20039;-61
2023/05/28 08:09:06;;;;;;;7.97;3.53;;;17.10;98.30;;;;;;5044888;28;20033;-62
2023/05/28 08:11:31;;;;;;;6.30;3.17;;;17.10;97.60;;;;;;5045432;28;20040;-63
2023/05/28 08:13:57;;;;;;;8.50;3.67;;;17.20;98.40;;;;;;5043911;28;20043;-62
2023/05/28 08:16:23;;;;;;;8.32;3.35;;;17.20;97.00;;;;;;5045793;28;20037;-62
2023/05/28 08:18:49;;;;;;;7.53;3.60;;;17.30;97.70;;;;;;5026333;28;20037;-62
2023/05/28 08:21:15;;;;;;;7.53;3.60;;;17.40;97.70;;;;;;5018147;28;20050;-62
2023/05/28 08:23:41;;;;;;;10.25;3.83;;;17.50;97.80;;;;;;5044202;28;20613;-62
2023/05/28 08:26:07;;;;;;;10.77;4.20;;;17.60;97.10;;;;;;5019794;28;20052;-59
2023/05/28 08:28:32;;;;;;;9.95;4.30;;;17.60;96.70;;;;;;5043022;28;20070;-60
2023/05/28 08:30:58;;;;;;;8.18;3.63;;;17.50;96.30;;;;;;5026335;28;20068;-59
2023/05/28 08:33:24;;;;;;;8.70;4.22;;;17.60;97.00;;;;;;5044817;28;20037;-60
2023/05/28 08:35:50;;;;;;;8.05;3.95;;;17.80;97.40;;;;;;5054227;28;20190;-59
2023/05/28 08:38:16;;;;;;;11.55;4.68;;;17.90;97.50;;;;;;5068112;28;20670;-59
2023/05/28 08:40:48;;;;;;;7.63;3.95;;;18.10;97.40;;;;;;5065580;28;20115;-60
2023/05/28 08:43:14;;;;;;;8.88;4.25;;;18.20;97.20;;;;;;5051026;28;20592;-60
2023/05/28 08:45:39;;;;;;;10.88;4.55;;;18.30;97.50;;;;;;5051227;28;20120;-60
2023/05/28 08:48:06;;;;;;;8.77;4.95;;;18.40;97.30;;;;;;5047958;28;20403;-60
2023/05/28 08:50:35;;;;;;;11.07;4.93;;;18.50;97.40;;;;;;5050184;28;20456;-60
2023/05/28 08:53:03;;;;;;;10.38;4.88;;;18.50;97.00;;;;;;5072704;28;20052;-59
2023/05/28 08:55:29;;;;;;;6.25;4.10;;;18.40;96.40;;;;;;5068692;28;20918;-60
2023/05/28 08:57:55;;;;;;;9.15;5.00;;;18.50;96.70;;;;;;5067705;28;20270;-59
2023/05/28 09:00:22;;;;;;;10.52;5.05;;;18.50;96.20;;;;;;5050276;28;20052;-60
2023/05/28 09:02:49;;;;;;;11.25;6.10;;;18.60;95.70;;;;;;5044196;28;20052;-59
2023/05/28 09:05:15;;;;;;;15.77;10.65;;;18.60;96.20;;;;;;5043240;28;20052;-58
2023/05/28 09:07:41;;;;;;;12.77;6.95;;;18.80;95.40;;;;;;5043714;28;20978;-60
2023/05/28 09:10:07;;;;;;;10.30;6.57;;;18.90;95.10;;;;;;5042156;28;20048;-58
2023/05/28 09:12:32;;;;;;;10.73;5.22;;;18.90;94.80;;;;;;5063477;28;20082;-59
2023/05/28 09:14:59;;;;;;;10.20;5.00;;;19.00;95.10;;;;;;5062700;28;20068;-60
2023/05/28 09:17:35;;;;;;;11.38;5.65;;;19.10;95.50;;;;;;5047782;28;20052;-60
2023/05/28 09:20:10;;;;;;;8.38;5.07;;;19.20;94.80;;;;;;5052807;28;20048;-62
2023/05/28 09:22:37;;;;;;;10.13;5.45;;;19.30;94.80;;;;;;5048416;28;20082;-61
2023/05/28 09:25:04;;;;;;;11.10;5.53;;;19.50;94.70;;;;;;5066974;28;20042;-61
2023/05/28 09:27:30;;;;;;;10.00;6.07;;;19.50;94.10;;;;;;5066807;28;20094;-61
2023/05/28 09:30:01;;;;;;;12.05;6.88;;;19.60;93.50;;;;;;5064361;28;20081;-61
2023/05/28 09:32:27;;;;;;;11.90;6.38;;;19.60;91.30;;;;;;5061321;28;20411;-61
2023/05/28 09:34:52;;;;;;;11.60;7.00;;;19.50;90.40;;;;;;5046890;28;20040;-60
2023/05/28 09:37:20;;;;;;;10.25;6.55;;;19.60;91.40;;;;;;5066963;28;20041;-60
2023/05/28 09:39:45;;;;;;;14.60;7.82;;;19.60;90.60;;;;;;5066325;28;20036;-61
2023/05/28 09:42:13;;;;;;;10.57;6.68;;;19.60;91.00;;;;;;5065437;28;20474;-61
2023/05/28 09:44:45;;;;;;;8.88;5.97;;;19.80;91.00;;;;;;5046434;28;20210;-60
2023/05/28 09:47:17;;;;;;;11.65;6.88;;;19.80;91.10;;;;;;5064694;28;20507;-59
2023/05/28 09:49:49;;;;;;;10.38;6.45;;;19.80;91.00;;;;;;5044968;28;20414;-60
2023/05/28 09:52:20;;;;;;;10.35;6.15;;;20.00;90.40;;;;;;5061654;28;20040;-59
2023/05/28 09:54:51;;;;;;;10.65;6.50;;;20.30;90.40;;;;;;5054487;28;20130;-61
2023/05/28 09:57:23;;;;;;;8.50;5.93;;;20.30;88.60;;;;;;5059521;28;20587;-60
2023/05/28 09:59:56;;;;;;;10.15;5.82;;;20.30;86.40;;;;;;5063390;28;20446;-60
2023/05/28 10:02:40;;;;;;;8.53;5.43;;;20.30;87.10;;;;;;5063845;28;20125;-60
2023/05/28 10:05:08;;;;;;;8.50;5.18;;;20.40;86.80;;;;;;5060741;28;20059;-61
2023/05/28 10:07:35;;;;;;;8.50;4.65;;;20.50;86.20;;;;;;5063572;28;20040;-60
2023/05/28 10:10:01;;;;;;;9.85;5.28;;;20.50;87.10;;;;;;5047870;28;20037;-60
2023/05/28 10:12:30;;;;;;;8.50;4.65;;;20.60;86.50;;;;;;5046422;28;20403;-60
2023/05/28 10:14:57;;;;;;;9.65;4.57;;;20.60;82.10;;;;;;5066485;28;20170;-61
2023/05/28 10:17:23;;;;;;;8.40;4.80;;;20.70;84.80;;;;;;5042134;28;20484;-60
2023/05/28 10:19:49;;;;;;;6.00;4.18;;;20.80;84.50;;;;;;5061578;28;20028;-60
2023/05/28 10:22:16;;;;;;;7.45;4.22;;;20.80;82.10;;;;;;5060330;28;20377;-60
2023/05/28 10:24:43;;;;;;;8.43;4.40;;;20.80;83.20;;;;;;5058628;28;20085;-61
2023/05/28 10:27:18;;;;;;;7.28;4.47;;;20.90;84.30;;;;;;5027769;28;20047;-60
2023/05/28 10:29:48;;;;;;;10.05;3.97;;;21.10;85.30;;;;;;5029373;28;20032;-61
2023/05/28 10:32:17;;;;;;;11.00;4.07;;;21.30;85.90;;;;;;5029578;28;20127;-61
2023/05/28 10:34:43;;;;;;;7.05;4.40;;;21.30;84.90;;;;;;5042099;28;20040;-60
2023/05/28 10:37:10;;;;;;;6.72;3.15;;;21.20;83.20;;;;;;5046669;28;20641;-61
2023/05/28 10:39:45;;;;;;;6.53;3.33;;;21.20;85.10;;;;;;5065209;28;20705;-60
2023/05/28 10:42:14;;;;;;;8.68;3.55;;;21.20;82.40;;;;;;5044031;28;20040;-61
2023/05/28 10:44:59;;;;;;;7.78;3.60;;;21.20;84.00;;;;;;5060612;28;21133;-60
2023/05/28 10:47:38;;;;;;;7.60;3.80;;;21.20;85.60;;;;;;5040392;28;20044;-60
2023/05/28 10:50:15;;;;;;;6.82;3.50;;;21.20;85.90;;;;;;5044486;28;20102;-61
2023/05/28 10:52:41;;;;;;;6.45;3.55;;;21.30;85.30;;;;;;5056366;28;20499;-61
2023/05/28 10:55:12;;;;;;;6.43;3.25;;;21.20;86.30;;;;;;5059107;28;20587;-61
2023/05/28 10:57:45;;;;;;;8.00;3.53;;;21.30;86.50;;;;;;5057297;28;20574;-61
2023/05/28 11:00:14;;;;;;;8.18;3.78;;;21.40;87.00;;;;;;5060176;28;20067;-60
2023/05/28 11:02:43;;;;;;;6.25;3.25;;;21.40;86.00;;;;;;5053885;28;20121;-59
2023/05/28 11:05:09;;;;;;;7.68;3.53;;;21.40;85.70;;;;;;5064722;28;20101;-60
2023/05/28 11:07:36;;;;;;;9.13;3.83;;;21.30;86.10;;;;;;5063769;28;20582;-61
2023/05/28 11:10:04;;;;;;;8.55;3.90;;;21.40;86.60;;;;;;5038693;28;20076;-60
2023/05/28 11:12:34;;;;;;;6.20;3.40;;;21.60;88.00;;;;;;5039453;28;20045;-62
2023/05/28 11:15:00;;;;;;;7.65;3.85;;;21.50;86.80;;;;;;5033589;28;20127;-61
2023/05/28 11:17:25;;;;;;;8.77;3.80;;;21.70;88.70;;;;;;5061940;28;20032;-61
2023/05/28 11:19:53;;;;;;;7.80;3.65;;;21.90;88.70;;;;;;5062450;28;20422;-61
2023/05/28 11:22:20;;;;;;;12.00;4.55;;;21.90;87.40;;;;;;5062298;28;20464;-61
2023/05/28 11:24:52;;;;;;;8.07;3.85;;;21.90;87.30;;;;;;5061261;28;20071;-61
2023/05/28 11:27:18;;;;;;;10.00;4.18;;;21.90;88.50;;;;;;5059053;28;20056;-61
2023/05/28 11:29:44;;;;;;;8.77;4.40;;;21.80;88.20;;;;;;5039351;28;20442;-61
2023/05/28 11:32:10;;;;;;;9.90;4.10;;;21.80;90.00;;;;;;5040747;28;20032;-60
2023/05/28 11:34:39;;;;;;;11.13;4.55;;;21.90;89.40;;;;;;5043134;28;20056;-61
2023/05/28 11:37:06;;;;;;;11.38;4.63;;;21.90;88.30;;;;;;5040651;28;20494;-61
2023/05/28 11:39:34;;;;;;;8.43;3.65;;;21.70;87.80;;;;;;5038878;28;20049;-61
2023/05/28 11:41:59;;;;;;;9.73;4.70;;;21.80;90.00;;;;;;5059263;28;20048;-60
2023/05/28 11:44:25;;;;;;;9.13;4.03;;;21.90;90.00;;;;;;5038871;28;20047;-60
2023/05/28 11:46:55;;;;;;;9.95;4.53;;;21.90;90.00;;;;;;5058040;28;20474;-61
2023/05/28 11:49:21;;;;;;;8.95;4.20;;;22.00;90.40;;;;;;5060099;28;20076;-60
2023/05/28 11:51:49;;;;;;;7.85;3.70;;;22.20;89.80;;;;;;5058818;28;20546;-60
2023/05/28 11:54:15;;;;;;;10.68;4.25;;;22.30;91.00;;;;;;5038134;28;20044;-61
2023/05/28 11:56:41;;;;;;;9.07;3.42;;;22.50;90.00;;;;;;5061186;28;20044;-61
2023/05/28 11:59:06;;;;;;;8.60;3.95;;;22.20;89.00;;;;;;5039065;28;20076;-61
2023/05/28 12:01:35;;;;;;;8.90;4.55;;;22.20;88.80;;;;;;5007364;28;20059;-61
2023/05/28 12:04:07;;;;;;;9.32;4.05;;;22.10;89.00;;;;;;5055078;28;20029;-62
2023/05/28 12:06:35;;;;;;;11.90;4.38;;;22.00;90.00;;;;;;5057344;28;20086;-61
2023/05/28 12:09:08;;;;;;;11.25;4.28;;;21.90;90.10;;;;;;5057939;28;20044;-61
2023/05/28 12:11:34;;;;;;;8.18;3.90;;;21.90;89.10;;;;;;5059214;28;20245;-61
2023/05/28 12:14:15;;;;;;;9.13;3.63;;;21.70;88.30;;;;;;5062158;28;20074;-61
2023/05/28 12:16:47;;;;;;;12.02;3.67;;;21.80;87.50;;;;;;5063837;28;20598;-60
2023/05/28 12:19:16;;;;;;;9.23;3.63;;;21.80;87.50;;;;;;5063522;28;20028;-61
2023/05/28 12:21:43;;;;;;;11.82;4.25;;;21.80;87.70;;;;;;5059539;28;20080;-62
2023/05/28 12:24:15;;;;;;;7.40;3.00;;;22.00;87.70;;;;;;5042480;28;20044;-61
2023/05/28 12:26:42;;;;;;;10.75;4.53;;;21.90;87.30;;;;;;5043067;28;20041;-61
2023/05/28 12:29:08;;;;;;;14.45;4.15;;;21.90;87.20;;;;;;5047403;28;20036;-61
2023/05/28 12:31:34;;;;;;;9.73;3.47;;;21.90;87.80;;;;;;5031170;28;20116;-61
2023/05/28 12:33:59;;;;;;;11.18;4.93;;;21.90;88.60;;;;;;5064750;28;20506;-61
2023/05/28 12:36:25;;;;;;;8.05;3.50;;;22.00;88.60;;;;;;5065049;28;20036;-59
2023/05/28 12:38:51;;;;;;;10.82;3.42;;;22.10;90.20;;;;;;5065363;28;20036;-61
2023/05/28 12:41:17;;;;;;;8.93;3.88;;;22.20;89.70;;;;;;5058507;28;20507;-60
2023/05/28 12:43:44;;;;;;;12.07;4.28;;;22.30;88.90;;;;;;5043680;28;20044;-61
2023/05/28 12:46:10;;;;;;;9.80;3.55;;;22.30;88.80;;;;;;5044053;28;20090;-62
2023/05/28 12:48:36;;;;;;;12.32;4.05;;;22.40;87.80;;;;;;5059895;28;20115;-62
2023/05/28 12:51:03;;;;;;;12.73;3.78;;;22.30;87.60;;;;;;5042793;28;20038;-61
2023/05/28 12:53:29;;;;;;;11.77;3.85;;;22.30;88.20;;;;;;5046429;28;20051;-62
2023/05/28 12:55:55;;;;;;;9.73;4.65;;;22.20;88.10;;;;;;5045403;28;20356;-62
2023/05/28 12:58:21;;;;;;;8.90;3.42;;;21.90;87.90;;;;;;5047919;28;20033;-62
2023/05/28 13:00:48;;;;;;;11.23;3.60;;;22.00;88.20;;;;;;5065235;28;20045;-62
2023/05/28 13:03:14;;;;;;;9.65;3.15;;;22.10;86.60;;;;;;5030584;28;20052;-62
2023/05/28 13:05:40;;;;;;;10.60;3.38;;;22.20;87.10;;;;;;5032038;28;20364;-62
2023/05/28 13:08:05;;;;;;;11.23;3.30;;;22.30;86.70;;;;;;5028624;28;20073;-62
2023/05/28 13:10:32;;;;;;;9.60;3.33;;;22.20;86.80;;;;;;5069647;28;20039;-62
2023/05/28 13:12:58;;;;;;;10.10;3.67;;;22.30;86.10;;;;;;5065409;28;20033;-62
2023/05/28 13:15:23;;;;;;;7.78;3.20;;;22.30;86.80;;;;;;5062413;28;20043;-61
2023/05/28 13:17:49;;;;;;;8.02;3.33;;;22.50;86.40;;;;;;5050047;28;20341;-61
2023/05/28 13:20:15;;;;;;;8.70;3.83;;;22.50;85.60;;;;;;5048935;28;20040;-62
2023/05/28 13:22:42;;;;;;;9.82;3.40;;;22.50;86.70;;;;;;5047504;28;20276;-62
2023/05/28 13:25:08;;;;;;;7.50;3.30;;;22.50;85.90;;;;;;5045985;28;20043;-62
2023/05/28 13:27:34;;;;;;;14.57;4.03;;;22.50;86.70;;;;;;5063765;28;20172;-61
2023/05/28 13:30:01;;;;;;;14.80;4.00;;;22.50;85.70;;;;;;5065613;28;20544;-62
2023/05/28 13:32:27;;;;;;;10.02;3.80;;;22.50;85.00;;;;;;5066884;28;20028;-61
2023/05/28 13:34:53;;;;;;;13.50;3.90;;;22.50;85.50;;;;;;5059880;28;20627;-61
2023/05/28 13:37:19;;;;;;;9.05;3.70;;;22.60;85.30;;;;;;5070049;28;20074;-61
2023/05/28 13:39:45;;;;;;;15.43;4.65;;;22.70;85.80;;;;;;5044630;28;20033;-61
2023/05/28 13:42:11;;;;;;;7.72;3.53;;;22.70;86.30;;;;;;5047996;28;20119;-62
2023/05/28 13:44:37;;;;;;;12.57;4.50;;;22.50;86.10;;;;;;5025874;28;20119;-62
2023/05/28 13:47:03;;;;;;;13.00;4.72;;;22.40;87.50;;;;;;5061702;28;20041;-61
2023/05/28 13:49:29;;;;;;;12.75;4.05;;;22.40;88.70;;;;;;5062933;28;20419;-62
2023/05/28 13:51:55;;;;;;;10.55;3.72;;;22.20;88.90;;;;;;5031549;28;20294;-62
2023/05/28 13:54:21;;;;;;;10.43;4.40;;;22.20;89.60;;;;;;5062297;28;20040;-62
2023/05/28 13:56:47;;;;;;;9.38;4.15;;;22.40;89.50;;;;;;5059307;28;20032;-62
2023/05/28 13:59:13;;;;;;;8.88;3.35;;;22.40;90.10;;;;;;5068004;28;20032;-62
2023/05/28 14:01:39;;;;;;;12.23;4.45;;;22.50;89.50;;;;;;5067432;28;20116;-61
2023/05/28 14:04:04;;;;;;;10.20;4.28;;;22.30;90.00;;;;;;5062983;28;20101;-61
2023/05/28 14:06:32;;;;;;;13.85;4.47;;;22.20;91.00;;;;;;5027968;28;20052;-62
2023/05/28 14:08:58;;;;;;;12.55;3.88;;;22.30;90.70;;;;;;5042545;28;20548;-61
2023/05/28 14:11:23;;;;;;;13.10;4.63;;;22.20;90.50;;;;;;5064485;28;20048;-62
2023/05/28 14:13:49;;;;;;;11.77;4.45;;;22.10;90.80;;;;;;5059865;28;20029;-61
2023/05/28 14:16:15;;;;;;;10.52;4.63;;;22.00;91.10;;;;;;5064814;28;20041;-62
2023/05/28 14:18:40;;;;;;;10.30;4.13;;;22.20;91.20;;;;;;5064282;28;20043;-62
2023/05/28 14:21:09;;;;;;;9.88;4.25;;;22.40;90.50;;;;;;5045736;28;20049;-61
2023/05/28 14:23:35;;;;;;;10.40;4.70;;;22.20;90.60;;;;;;5030146;28;20052;-62
2023/05/28 14:26:00;;;;;;;12.95;4.85;;;21.90;90.60;;;;;;5030083;28;20048;-62
2023/05/28 14:28:26;;;;;;;12.77;4.70;;;21.80;91.30;;;;;;5045636;28;20032;-61
2023/05/28 14:30:52;;;;;;;10.85;4.63;;;21.90;91.50;;;;;;5062004;28;20549;-61
2023/05/28 14:33:18;;;;;;;11.32;4.78;;;21.80;91.70;;;;;;5042221;28;20049;-62
2023/05/28 14:35:43;;;;;;;11.50;4.88;;;21.60;91.70;;;;;;5064667;28;20029;-61
2023/05/28 14:38:09;;;;;;;14.98;5.20;;;21.30;92.20;;;;;;5030755;28;20037;-62
2023/05/28 14:40:35;;;;;;;16.00;5.45;;;21.20;92.50;;;;;;5062899;28;20044;-61
2023/05/28 14:43:00;;;;;;;12.95;5.35;;;21.10;92.30;;;;;;5031181;28;20542;-61
2023/05/28 14:45:26;;;;;;;15.45;5.38;;;21.10;92.60;;;;;;5066420;28;20032;-61
2023/05/28 14:47:54;;;;;;;14.65;6.43;;;20.60;92.70;;;;;;5037651;28;20408;-61
2023/05/28 14:50:20;;;;;;;11.90;5.85;;;20.60;92.80;;;;;;5057142;28;20052;-62
2023/05/28 14:52:46;;;;;;;18.58;6.75;;;20.30;93.30;;;;;;5045478;28;20047;-62
2023/05/28 14:55:12;;;;;;;15.75;5.95;;;20.10;93.90;;;;;;5031302;28;20437;-62
2023/05/28 14:57:37;;;;;;;11.70;5.70;;;20.10;94.10;;;;;;5065538;28;20119;-61
2023/05/28 15:00:09;;;;;;;11.25;5.90;;;20.10;94.50;;;;;;5041575;28;20028;-61
2023/05/28 15:02:36;;;;;;;15.98;6.28;;;20.10;94.30;;;;;;5030795;28;20389;-62
2023/05/28 15:05:05;;;;;;;12.52;6.45;;;20.00;94.40;;;;;;5060079;28;20040;-61
2023/05/28 15:07:31;;;;;;;15.25;7.40;;;20.00;94.60;;;;;;5042914;28;20036;-61
2023/05/28 15:09:58;;;;;;;15.93;7.22;;;20.00;94.70;;;;;;5065915;28;20047;-61
2023/05/28 15:12:24;;;;;;;15.45;7.30;;;20.00;95.10;;;;;;5047071;28;20044;-61
2023/05/28 15:14:50;;;;;;;18.83;7.93;;;20.00;95.10;;;;;;5056573;28;20032;-61
2023/05/28 15:17:16;;;;;;;18.05;7.70;;;19.70;95.10;;;;;;5042228;28;20537;-61
2023/05/28 15:19:41;;;;;;;17.38;7.55;;;19.50;95.50;;;;;;5059199;28;20048;-61
2023/05/28 15:22:07;;;;;;;12.52;6.20;;;19.20;95.90;;;;;;5061855;28;20040;-62
2023/05/28 15:24:34;;;;;;;16.27;6.88;;;19.20;96.30;;;;;;5046859;28;20131;-61
2023/05/28 15:27:01;;;;;;;12.40;6.40;;;19.20;96.50;;;;;;5067443;28;20033;-62
2023/05/28 15:29:29;;;;;;;16.83;6.78;;;19.30;96.60;;;;;;5045203;28;20036;-61
2023/05/28 15:31:56;;;;;;;17.35;6.97;;;19.30;96.40;;;;;;5065472;28;20077;-60
2023/05/28 15:34:22;;;;;;;14.95;6.93;;;19.30;96.40;;;;;;5039515;28;20033;-61
2023/05/28 15:36:48;;;;;;;16.25;7.38;;;19.10;96.40;;;;;;5058052;28;20447;-61
2023/05/28 15:39:14;;;;;;;13.10;6.45;;;19.00;96.50;;;;;;5041798;28;20045;-60
2023/05/28 15:41:42;;;;;;;15.18;7.32;;;19.00;96.90;;;;;;5061376;28;20143;-61
2023/05/28 15:44:08;;;;;;;14.70;7.05;;;19.00;96.90;;;;;;5067179;28;20104;-61
2023/05/28 15:46:34;;;;;;;16.42;7.25;;;18.80;97.40;;;;;;5064125;28;20039;-61
2023/05/28 15:49:00;;;;;;;14.55;7.38;;;18.60;97.40;;;;;;5064969;28;20045;-61
2023/05/28 15:51:26;;;;;;;15.60;6.85;;;18.40;97.60;;;;;;5061348;28;20033;-61
2023/05/28 15:53:52;;;;;;;16.38;7.40;;;18.40;97.70;;;;;;5068873;28;20033;-61
2023/05/28 15:56:17;;;;;;;16.08;7.60;;;18.30;97.90;;;;;;5031859;28;20040;-61
2023/05/28 15:58:43;;;;;;;16.65;6.82;;;18.20;98.10;;;;;;5066234;28;20494;-62
2023/05/28 16:01:09;;;;;;;14.52;7.15;;;18.20;98.30;;;;;;5066325;28;20032;-61
2023/05/28 16:03:36;;;;;;;17.33;7.35;;;18.20;98.50;;;;;;5044145;28;20044;-62
2023/05/28 16:06:03;;;;;;;14.10;6.60;;;18.10;98.50;;;;;;5033096;28;20052;-61
2023/05/28 16:08:29;;;;;;;12.18;6.85;;;18.10;98.70;;;;;;5046267;28;20133;-61
2023/05/28 16:10:55;;;;;;;14.43;6.47;;;18.00;98.80;;;;;;5067072;28;20047;-61
2023/05/28 16:13:24;;;;;;;15.02;5.97;;;18.00;98.90;;;;;;5065472;28;20491;-61
2023/05/28 16:15:51;;;;;;;13.18;6.40;;;18.00;99.00;;;;;;5044120;28;20035;-61
2023/05/28 16:18:18;;;;;;;14.30;5.97;;;17.80;99.00;;;;;;5026347;28;20037;-61
2023/05/28 16:20:45;;;;;;;14.00;5.70;;;17.70;99.10;;;;;;5043827;28;20189;-61
2023/05/28 16:23:12;;;;;;;13.52;5.80;;;17.60;99.30;;;;;;5068004;28;20616;-61
2023/05/28 16:25:38;;;;;;;15.32;7.03;;;17.50;99.70;;;;;;5061728;28;20098;-60
2023/05/28 16:28:04;;;;;;;15.70;6.93;;;17.40;99.90;;;;;;5064634;28;20032;-62
2023/05/28 16:30:30;;;;;;;12.15;6.32;;;17.30;99.90;;;;;;5052769;28;20369;-61
2023/05/28 16:32:57;;;;;;;14.60;6.05;;;17.30;99.90;;;;;;5050893;28;20317;-62
2023/05/28 16:35:25;;;;;;;15.30;5.95;;;17.30;99.90;;;;;;5018294;28;1139654;-61
2023/05/28 16:37:51;;;;;;;11.77;5.90;;;17.30;99.90;;;;;;5068831;28;20045;-62
2023/05/28 16:40:17;;;;;;;14.40;5.78;;;17.30;99.90;;;;;;5057975;28;20037;-61
2023/05/28 16:42:45;;;;;;;14.32;6.10;;;17.40;99.90;;;;;;5057093;28;20043;-61
2023/05/28 16:45:12;;;;;;;15.20;6.45;;;17.40;99.90;;;;;;5041180;28;20037;-61
2023/05/28 16:47:41;;;;;;;13.95;6.18;;;17.30;99.90;;;;;;5037339;28;20189;-61
2023/05/28 16:50:08;;;;;;;15.45;6.30;;;17.30;99.90;;;;;;5045959;28;20151;-61
2023/05/28 16:52:34;;;;;;;15.23;7.07;;;17.20;99.90;;;;;;5064218;28;20050;-60
2023/05/28 16:55:01;;;;;;;13.55;6.40;;;17.20;99.90;;;;;;5061533;28;20028;-60
2023/05/28 16:57:27;;;;;;;14.82;6.50;;;16.90;99.90;;;;;;5049703;28;20071;-61
2023/05/28 16:59:53;;;;;;;13.95;6.05;;;16.80;99.90;;;;;;5045671;28;20389;-61
2023/05/28 17:02:20;;;;;;;11.25;5.30;;;16.80;99.90;;;;;;5044919;28;20345;-60
2023/05/28 17:04:46;;;;;;;9.20;5.50;;;16.80;99.90;;;;;;5043720;28;20683;-62
2023/05/28 17:07:12;;;;;;;14.18;6.40;;;16.60;99.90;;;;;;5041349;28;20133;-61
2023/05/28 17:09:38;;;;;;;11.80;5.40;;;16.70;99.90;;;;;;5061233;28;20738;-61
2023/05/28 17:12:05;;;;;;;13.15;5.47;;;16.60;99.90;;;;;;5060619;28;20044;-61
2023/05/28 17:14:31;;;;;;;9.68;5.18;;;16.50;99.90;;;;;;5062554;28;20037;-61
2023/05/28 17:16:58;;;;;;;9.93;5.18;;;16.20;99.90;;;;;;5063620;28;20554;-61
2023/05/28 17:19:23;;;;;;;10.52;5.55;;;16.10;99.90;;;;;;5045093;28;20095;-62
2023/05/28 17:21:49;;;;;;;11.15;4.80;;;16.00;99.90;;;;;;5015396;28;20452;-61
2023/05/28 17:24:15;;;;;;;10.93;4.05;;;16.00;99.90;;;;;;5065449;28;20079;-62
2023/05/28 17:26:41;;;;;;;11.02;4.55;;;15.90;99.90;;;;;;5042700;28;20080;-61
2023/05/28 17:29:08;;;;;;;15.02;4.53;;;15.70;99.90;;;;;;5063530;28;20534;-61
2023/05/28 17:31:37;;;;;;;11.07;4.47;;;15.70;99.90;;;;;;5056481;28;20047;-61
2023/05/28 17:34:03;;;;;;;11.35;4.65;;;15.80;99.90;;;;;;5062675;28;20079;-60
2023/05/28 17:44:35;;;;;;;11.45;4.53;;;16.10;99.90;;;;;;5073077;28;20539;-62
2023/05/28 17:47:01;;;;;;;11.52;4.20;;;16.00;99.90;;;;;;5065175;28;20066;-61
2023/05/28 17:49:26;;;;;;;11.27;4.40;;;16.00;99.90;;;;;;5061033;28;20044;-61
2023/05/28 17:51:53;;;;;;;12.73;4.38;;;16.00;99.90;;;;;;5044436;28;20630;-61
2023/05/28 17:54:20;;;;;;;16.33;4.65;;;16.00;99.90;;;;;;5064605;28;20055;-61
2023/05/28 17:56:47;;;;;;;10.20;4.00;;;15.90;99.90;;;;;;5045703;28;20048;-61
2023/05/28 17:59:13;;;;;;;12.18;4.18;;;15.90;99.90;;;;;;5057695;28;20127;-61
2023/05/28 18:01:41;;;;;;;9.40;3.80;;;16.00;99.90;;;;;;5060895;28;20075;-60